Time;durP1;ratioP1;P1;durP2;ratioP2;P2;SDS_P1;SDS_P2;PMS_P1;PMS_P2;Temp;Humidity;BMP_temperature;BMP_pressure;BME280_temperature;BME280_humidity;BME280_pressure;Samples;Min_cycle;Max_cycle;Signal;HPM_P1;HPM_P2
2023/05/04 00:00:46;;;;;;;11.85;10.52;;;7.80;99.90;;;;;;5039548;28;20402;-70
2023/05/04 00:03:13;;;;;;;13.43;9.98;;;7.80;99.90;;;;;;5040578;28;20306;-72
2023/05/04 00:05:40;;;;;;;11.48;10.20;;;7.80;99.90;;;;;;5034275;28;20203;-72
2023/05/04 00:08:07;;;;;;;12.45;10.40;;;7.80;99.90;;;;;;5035471;28;20565;-71
2023/05/04 00:10:34;;;;;;;14.88;10.07;;;7.70;99.90;;;;;;5034559;28;20261;-69
2023/05/04 00:13:01;;;;;;;14.63;11.20;;;7.70;99.90;;;;;;5037523;28;20564;-71
2023/05/04 00:15:30;;;;;;;11.38;10.10;;;7.70;99.90;;;;;;5033540;28;20653;-69
2023/05/04 00:17:57;;;;;;;17.73;11.55;;;7.70;99.90;;;;;;5036279;28;20202;-73
2023/05/04 00:20:23;;;;;;;15.32;9.20;;;7.60;99.90;;;;;;5037743;28;20695;-71
2023/05/04 00:22:50;;;;;;;19.45;10.82;;;7.60;99.90;;;;;;5038221;28;20215;-74
2023/05/04 00:25:17;;;;;;;13.98;10.73;;;7.60;99.90;;;;;;5036943;28;20725;-70
2023/05/04 00:27:44;;;;;;;12.40;10.25;;;7.60;99.90;;;;;;5039246;28;20217;-73
2023/05/04 00:30:12;;;;;;;13.15;11.10;;;7.60;99.90;;;;;;5036665;28;20759;-71
2023/05/04 00:32:41;;;;;;;12.57;11.10;;;7.50;99.90;;;;;;5034112;28;20284;-69
2023/05/04 00:35:08;;;;;;;14.02;11.15;;;7.50;99.90;;;;;;5035779;28;20215;-72
2023/05/04 00:37:35;;;;;;;13.50;11.05;;;7.50;99.90;;;;;;5033251;28;20573;-71
2023/05/04 00:40:02;;;;;;;12.38;9.95;;;7.50;99.90;;;;;;5032875;28;20763;-70
2023/05/04 00:42:29;;;;;;;12.75;10.52;;;7.50;99.90;;;;;;5033403;28;20207;-71
2023/05/04 00:44:56;;;;;;;11.82;10.02;;;7.50;99.90;;;;;;5037291;28;20261;-71
2023/05/04 00:47:23;;;;;;;11.80;10.18;;;7.50;99.90;;;;;;5032753;28;20214;-74
2023/05/04 00:49:53;;;;;;;13.93;10.65;;;7.40;99.90;;;;;;5032391;28;20306;-74
2023/05/04 00:52:21;;;;;;;18.38;11.13;;;7.40;99.90;;;;;;5033388;28;20207;-73
2023/05/04 00:54:48;;;;;;;15.25;9.77;;;7.40;99.90;;;;;;5037802;28;20230;-69
2023/05/04 00:57:16;;;;;;;13.68;10.73;;;7.40;99.90;;;;;;5039904;28;20209;-70
2023/05/04 00:59:43;;;;;;;13.45;11.15;;;7.40;99.90;;;;;;5039608;28;20236;-70
2023/05/04 01:02:10;;;;;;;13.13;10.40;;;7.40;99.90;;;;;;5041600;28;20208;-73
2023/05/04 01:04:37;;;;;;;13.10;9.48;;;7.30;99.90;;;;;;5033795;28;20689;-72
2023/05/04 01:07:14;;;;;;;18.48;10.65;;;7.30;99.90;;;;;;5040002;28;20205;-72
2023/05/04 01:09:47;;;;;;;17.40;12.48;;;7.30;99.90;;;;;;5034929;28;20698;-72
2023/05/04 01:12:18;;;;;;;18.08;9.70;;;7.30;99.90;;;;;;5035954;28;20634;-72
2023/05/04 01:14:46;;;;;;;16.85;10.85;;;7.20;99.90;;;;;;5042994;28;20269;-71
2023/05/04 01:17:14;;;;;;;14.43;9.85;;;7.20;99.90;;;;;;5035190;28;20265;-69
2023/05/04 01:19:41;;;;;;;16.08;10.25;;;7.20;99.90;;;;;;5031629;28;20264;-74
2023/05/04 01:22:09;;;;;;;15.98;10.90;;;7.30;99.90;;;;;;5033851;28;20675;-70
2023/05/04 01:24:36;;;;;;;11.43;9.43;;;7.30;99.90;;;;;;5032913;28;20239;-74
2023/05/04 01:27:08;;;;;;;12.52;9.23;;;7.30;99.90;;;;;;5033391;28;20300;-72
2023/05/04 01:29:42;;;;;;;13.00;9.85;;;7.20;99.90;;;;;;5031998;28;20219;-71
2023/05/04 01:32:11;;;;;;;18.88;11.55;;;7.20;99.90;;;;;;5026819;28;20256;-74
2023/05/04 01:34:40;;;;;;;14.50;11.13;;;7.20;99.90;;;;;;5033008;28;20202;-73
2023/05/04 01:37:09;;;;;;;18.00;9.98;;;7.10;99.90;;;;;;5040907;28;20204;-70
2023/05/04 01:39:36;;;;;;;14.38;9.75;;;7.10;99.90;;;;;;5036391;28;20334;-70
2023/05/04 01:42:03;;;;;;;15.63;11.30;;;7.10;99.90;;;;;;5046081;28;20202;-74
2023/05/04 01:44:29;;;;;;;20.98;10.52;;;7.10;99.90;;;;;;5037121;28;20214;-74
2023/05/04 01:46:56;;;;;;;21.40;11.80;;;7.10;99.90;;;;;;5034947;28;20283;-72
2023/05/04 01:49:23;;;;;;;18.08;10.02;;;7.10;99.90;;;;;;5039201;28;20304;-75
2023/05/04 01:51:50;;;;;;;20.25;10.75;;;7.00;99.90;;;;;;5035554;28;20729;-73
2023/05/04 01:54:18;;;;;;;14.82;9.25;;;7.00;99.90;;;;;;5034039;28;20284;-74
2023/05/04 01:56:45;;;;;;;13.15;10.65;;;7.00;99.90;;;;;;5037754;28;20198;-71
2023/05/04 01:59:12;;;;;;;19.17;10.40;;;7.00;99.90;;;;;;5037341;28;20230;-71
2023/05/04 02:01:40;;;;;;;17.42;9.93;;;7.00;99.90;;;;;;5040241;28;20281;-73
2023/05/04 02:04:07;;;;;;;11.82;9.13;;;7.00;99.90;;;;;;5039233;28;20230;-72
2023/05/04 02:06:34;;;;;;;16.33;8.90;;;7.00;99.90;;;;;;5035750;28;20232;-70
2023/05/04 02:09:02;;;;;;;16.55;9.75;;;7.00;99.90;;;;;;5035992;28;20230;-71
2023/05/04 02:11:30;;;;;;;12.55;9.10;;;7.00;99.90;;;;;;5035403;28;20206;-71
2023/05/04 02:13:57;;;;;;;15.52;9.43;;;7.00;99.90;;;;;;5036225;28;20337;-71
2023/05/04 02:16:24;;;;;;;17.60;9.38;;;7.00;99.90;;;;;;5036163;28;20197;-72
2023/05/04 02:18:51;;;;;;;19.20;10.60;;;6.90;99.90;;;;;;5036175;28;20281;-72
2023/05/04 02:21:18;;;;;;;14.50;9.75;;;7.10;99.90;;;;;;5043761;28;20214;-72
2023/05/04 02:23:45;;;;;;;15.63;8.45;;;7.00;99.90;;;;;;5046747;28;20266;-74
2023/05/04 02:26:11;;;;;;;12.73;9.77;;;6.90;99.90;;;;;;5047220;28;20234;-73
2023/05/04 02:28:40;;;;;;;13.60;9.45;;;6.90;99.90;;;;;;5042248;28;20196;-71
2023/05/04 02:31:07;;;;;;;16.63;10.18;;;6.90;99.90;;;;;;5046353;28;20243;-73
2023/05/04 02:33:34;;;;;;;11.85;9.20;;;7.00;99.90;;;;;;5042154;28;20214;-70
2023/05/04 02:36:00;;;;;;;17.60;9.38;;;7.00;99.90;;;;;;5046120;28;20556;-71
2023/05/04 02:38:27;;;;;;;21.92;10.32;;;7.00;99.90;;;;;;5038571;28;20294;-71
2023/05/04 02:40:54;;;;;;;11.05;7.78;;;6.90;99.90;;;;;;5042825;28;20288;-73
2023/05/04 02:43:21;;;;;;;19.15;8.57;;;6.90;99.90;;;;;;5043559;28;20204;-73
2023/05/04 02:45:49;;;;;;;10.95;8.55;;;6.90;99.90;;;;;;5035654;28;20590;-72
2023/05/04 02:48:16;;;;;;;13.85;8.05;;;6.90;99.90;;;;;;5041585;28;20213;-73
2023/05/04 02:50:45;;;;;;;12.65;9.20;;;6.90;99.90;;;;;;5034721;28;20219;-71
2023/05/04 02:53:12;;;;;;;15.60;7.97;;;6.80;99.90;;;;;;5035681;28;20238;-73
2023/05/04 02:55:39;;;;;;;11.40;8.90;;;6.80;99.90;;;;;;5035135;28;20245;-73
2023/05/04 02:58:06;;;;;;;12.25;7.22;;;6.80;99.90;;;;;;5033656;28;20324;-71
2023/05/04 03:00:33;;;;;;;21.75;8.45;;;6.80;99.90;;;;;;5035294;28;20303;-70
2023/05/04 03:03:01;;;;;;;14.05;9.55;;;6.80;99.90;;;;;;5035142;28;20292;-69
2023/05/04 03:05:28;;;;;;;17.20;8.73;;;6.80;99.90;;;;;;5034987;28;20223;-70
2023/05/04 03:07:55;;;;;;;29.13;9.38;;;6.70;99.90;;;;;;5034544;28;20209;-72
2023/05/04 03:10:22;;;;;;;13.32;7.95;;;6.70;99.90;;;;;;5034355;28;20228;-70
2023/05/04 03:12:49;;;;;;;15.10;9.02;;;6.70;99.90;;;;;;5036864;28;20284;-71
2023/05/04 03:15:16;;;;;;;13.10;8.23;;;6.70;99.90;;;;;;5035399;28;20281;-72
2023/05/04 03:17:43;;;;;;;17.25;9.30;;;6.70;99.90;;;;;;5037323;28;20206;-72
2023/05/04 03:20:13;;;;;;;13.23;8.70;;;6.70;99.90;;;;;;5035558;28;20599;-72
2023/05/04 03:22:40;;;;;;;13.30;8.70;;;6.70;99.90;;;;;;5032584;28;20201;-74
2023/05/04 03:25:08;;;;;;;13.05;8.68;;;6.70;99.90;;;;;;5038030;28;20678;-71
2023/05/04 03:27:35;;;;;;;12.60;7.80;;;6.70;99.90;;;;;;5034664;28;20217;-71
2023/05/04 03:30:02;;;;;;;22.65;9.75;;;6.70;99.90;;;;;;5033750;28;20233;-74
2023/05/04 03:32:29;;;;;;;11.93;8.98;;;6.70;99.90;;;;;;5031255;28;20281;-72
2023/05/04 03:34:56;;;;;;;13.45;8.10;;;6.70;99.90;;;;;;5034428;28;20297;-72
2023/05/04 03:37:24;;;;;;;23.10;9.15;;;6.70;99.90;;;;;;5033072;28;20252;-75
2023/05/04 03:39:51;;;;;;;17.52;9.15;;;6.60;99.90;;;;;;5035674;28;20260;-70
2023/05/04 03:42:18;;;;;;;10.70;7.43;;;6.60;99.90;;;;;;5035417;28;20204;-70
2023/05/04 03:44:47;;;;;;;21.63;8.57;;;6.70;99.90;;;;;;5034501;28;20225;-72
2023/05/04 03:47:13;;;;;;;18.25;9.20;;;6.70;99.90;;;;;;5037202;28;20215;-70
2023/05/04 03:49:40;;;;;;;14.52;8.50;;;6.60;99.90;;;;;;5033616;28;20591;-70
2023/05/04 03:52:07;;;;;;;13.13;8.02;;;6.70;99.90;;;;;;5035525;28;20307;-72
2023/05/04 03:54:36;;;;;;;11.95;8.35;;;6.70;99.90;;;;;;5034502;28;20196;-73
2023/05/04 03:57:03;;;;;;;12.13;6.57;;;6.70;99.90;;;;;;5035004;28;20220;-74
2023/05/04 03:59:30;;;;;;;9.57;6.35;;;6.70;99.90;;;;;;5036519;28;20319;-73
2023/05/04 04:01:57;;;;;;;11.93;8.50;;;6.70;99.90;;;;;;5034023;28;20253;-71
2023/05/04 04:04:24;;;;;;;11.88;8.43;;;6.70;99.90;;;;;;5033652;28;20226;-71
2023/05/04 04:06:51;;;;;;;11.63;8.63;;;6.80;99.90;;;;;;5038403;28;20202;-70
2023/05/04 04:09:19;;;;;;;12.23;8.15;;;6.80;99.90;;;;;;5033324;28;20745;-71
2023/05/04 04:11:47;;;;;;;11.32;8.02;;;6.90;99.90;;;;;;5033001;28;20245;-73
2023/05/04 04:14:14;;;;;;;16.65;8.63;;;7.00;99.90;;;;;;5033836;28;20209;-72
2023/05/04 04:16:41;;;;;;;11.73;7.47;;;7.00;99.90;;;;;;5033644;28;20287;-71
2023/05/04 04:19:08;;;;;;;10.95;7.10;;;7.10;99.90;;;;;;5038968;28;20235;-72
2023/05/04 04:21:34;;;;;;;12.85;8.07;;;7.10;99.90;;;;;;5034120;28;20326;-73
2023/05/04 04:24:01;;;;;;;14.30;7.15;;;7.20;99.90;;;;;;5033900;28;20223;-72
2023/05/04 04:26:29;;;;;;;7.50;6.70;;;7.20;99.90;;;;;;5041365;28;20198;-73
2023/05/04 04:28:57;;;;;;;11.57;7.68;;;7.40;99.90;;;;;;5048802;28;20310;-72
2023/05/04 04:31:33;;;;;;;9.85;6.68;;;7.40;99.90;;;;;;5020560;28;20201;-71
2023/05/04 04:34:00;;;;;;;8.45;6.97;;;7.50;99.90;;;;;;5035337;28;20333;-70
2023/05/04 04:36:27;;;;;;;13.57;7.00;;;7.50;99.90;;;;;;5036009;28;20214;-71
2023/05/04 04:38:54;;;;;;;11.73;7.93;;;7.60;99.90;;;;;;5036816;28;20314;-69
2023/05/04 04:41:25;;;;;;;14.93;6.75;;;7.60;99.90;;;;;;5038571;28;20227;-74
2023/05/04 04:43:52;;;;;;;12.18;6.50;;;7.70;99.90;;;;;;5055669;28;20194;-72
2023/05/04 04:46:26;;;;;;;16.02;6.50;;;7.80;99.90;;;;;;5042260;28;20254;-71
2023/05/04 04:48:54;;;;;;;9.70;6.32;;;7.90;99.90;;;;;;5035289;28;20713;-73
2023/05/04 04:51:28;;;;;;;9.60;5.70;;;8.00;99.90;;;;;;5033243;28;20204;-75
2023/05/04 04:53:55;;;;;;;9.20;5.95;;;8.40;99.90;;;;;;5035390;28;20243;-74
2023/05/04 04:56:23;;;;;;;7.80;5.85;;;8.80;99.90;;;;;;5029416;28;20212;-73
2023/05/04 04:58:50;;;;;;;8.95;6.45;;;9.20;99.90;;;;;;5020985;28;20640;-70
2023/05/04 05:01:18;;;;;;;9.70;5.45;;;9.40;99.90;;;;;;5033181;28;20201;-70
2023/05/04 05:03:47;;;;;;;11.70;5.85;;;9.70;99.90;;;;;;5034818;28;20232;-69
2023/05/04 05:06:14;;;;;;;11.38;6.10;;;10.00;99.90;;;;;;5044494;28;20207;-70
2023/05/04 05:08:42;;;;;;;5.40;4.90;;;10.30;99.90;;;;;;5038566;28;20234;-70
2023/05/04 05:11:09;;;;;;;13.18;5.63;;;10.60;99.90;;;;;;5032965;28;20575;-70
2023/05/04 05:13:36;;;;;;;12.45;5.82;;;10.90;99.90;;;;;;5032529;28;20294;-68
2023/05/04 05:16:04;;;;;;;7.05;5.20;;;11.10;99.90;;;;;;5027797;28;20225;-71
2023/05/04 05:18:31;;;;;;;8.10;6.10;;;11.40;99.90;;;;;;5031755;28;20642;-69
2023/05/04 05:21:01;;;;;;;5.35;4.70;;;11.50;99.90;;;;;;5024646;28;20215;-70
2023/05/04 05:23:28;;;;;;;7.30;4.75;;;11.70;99.90;;;;;;5035466;28;20221;-72
2023/05/04 05:25:55;;;;;;;8.98;4.90;;;12.00;99.90;;;;;;5029722;28;20212;-68
2023/05/04 05:28:22;;;;;;;9.82;4.35;;;12.30;99.90;;;;;;5024613;28;20289;-71
2023/05/04 05:30:50;;;;;;;8.10;4.60;;;12.70;99.90;;;;;;5031596;28;20192;-68
2023/05/04 05:33:17;;;;;;;12.30;6.13;;;13.10;99.90;;;;;;5033723;28;20204;-69
2023/05/04 05:35:45;;;;;;;6.68;4.88;;;13.40;99.00;;;;;;5034971;28;20288;-69
2023/05/04 05:38:15;;;;;;;9.70;5.00;;;13.60;97.40;;;;;;5045431;28;20207;-72
2023/05/04 05:40:41;;;;;;;10.20;4.50;;;13.90;97.20;;;;;;5031219;28;20251;-73
2023/05/04 05:43:08;;;;;;;7.25;4.20;;;14.30;96.10;;;;;;5031387;28;20239;-72
2023/05/04 05:45:35;;;;;;;6.13;4.45;;;14.70;94.60;;;;;;5030406;28;20304;-74
2023/05/04 05:48:02;;;;;;;4.93;3.95;;;15.00;93.50;;;;;;5033965;28;20323;-73
2023/05/04 05:50:29;;;;;;;8.18;4.07;;;15.10;92.30;;;;;;5031549;28;20232;-72
2023/05/04 05:52:57;;;;;;;11.70;4.30;;;15.40;92.10;;;;;;5031690;28;20228;-74
2023/05/04 05:55:25;;;;;;;5.68;4.10;;;15.60;91.90;;;;;;5033968;28;20208;-75
2023/05/04 05:57:52;;;;;;;5.70;3.70;;;16.00;91.00;;;;;;5032659;28;20676;-73
2023/05/04 06:00:20;;;;;;;12.50;3.80;;;16.50;90.00;;;;;;5035235;28;20317;-73
2023/05/04 06:02:47;;;;;;;5.57;3.67;;;16.80;88.60;;;;;;5031973;28;20477;-72
2023/05/04 06:05:14;;;;;;;7.73;3.90;;;16.90;87.40;;;;;;5036341;28;20470;-73
2023/05/04 06:07:41;;;;;;;5.63;3.77;;;17.20;86.90;;;;;;5033971;28;20442;-71
2023/05/04 06:10:09;;;;;;;8.30;4.67;;;17.60;86.20;;;;;;5035114;28;20554;-72
2023/05/04 06:12:37;;;;;;;4.23;3.20;;;17.80;84.30;;;;;;5033216;28;20505;-73
2023/05/04 06:15:05;;;;;;;9.30;3.83;;;17.90;83.20;;;;;;5031736;28;20442;-74
2023/05/04 06:17:32;;;;;;;6.87;3.90;;;17.60;83.30;;;;;;5031872;28;20915;-73
2023/05/04 06:19:59;;;;;;;5.60;3.70;;;17.70;82.60;;;;;;5039826;28;20498;-75
2023/05/04 06:22:26;;;;;;;8.10;4.53;;;17.60;82.70;;;;;;5030116;28;20508;-73
2023/05/04 06:24:53;;;;;;;5.50;3.40;;;17.60;83.00;;;;;;5031481;28;20459;-72
2023/05/04 06:27:19;;;;;;;7.00;4.20;;;17.50;83.60;;;;;;5031963;28;20881;-72
2023/05/04 06:29:48;;;;;;;9.03;4.20;;;17.90;83.10;;;;;;5033680;28;20547;-74
2023/05/04 06:32:15;;;;;;;9.50;3.23;;;17.90;82.30;;;;;;5031451;28;20558;-73
2023/05/04 06:34:41;;;;;;;4.50;2.90;;;18.10;82.30;;;;;;5019087;28;20476;-74
2023/05/04 06:37:08;;;;;;;7.33;4.00;;;18.30;81.30;;;;;;5031225;28;20453;-72
2023/05/04 06:39:35;;;;;;;7.03;3.57;;;18.40;81.50;;;;;;5029954;28;21021;-74
2023/05/04 06:42:03;;;;;;;7.13;3.47;;;18.60;81.00;;;;;;5031082;28;20475;-73
2023/05/04 06:44:30;;;;;;;6.53;3.20;;;18.60;80.70;;;;;;5035742;28;20509;-73
2023/05/04 06:46:58;;;;;;;5.57;4.10;;;18.50;80.50;;;;;;5039106;28;20482;-74
2023/05/04 06:49:25;;;;;;;7.73;3.80;;;18.20;81.10;;;;;;5037050;28;20559;-73
2023/05/04 06:51:53;;;;;;;7.60;3.23;;;18.20;81.50;;;;;;5037617;28;20529;-74
2023/05/04 06:54:20;;;;;;;7.93;3.27;;;18.30;81.00;;;;;;5035487;28;20474;-75
2023/05/04 06:56:47;;;;;;;6.70;4.33;;;18.40;80.90;;;;;;5035395;28;20435;-74
2023/05/04 06:59:15;;;;;;;5.80;3.30;;;18.20;80.60;;;;;;5037450;28;20548;-73
2023/05/04 07:01:44;;;;;;;5.90;3.70;;;18.40;80.80;;;;;;5037172;28;20465;-71
2023/05/04 07:04:12;;;;;;;4.37;3.20;;;18.30;80.40;;;;;;5037610;28;20481;-74
2023/05/04 07:06:40;;;;;;;9.20;3.40;;;18.20;80.80;;;;;;5042918;28;20990;-74
2023/05/04 07:09:07;;;;;;;4.77;2.87;;;18.30;81.10;;;;;;5043745;28;20492;-73
2023/05/04 07:11:34;;;;;;;6.17;2.87;;;18.60;80.80;;;;;;5027846;28;20803;-72
2023/05/04 07:14:01;;;;;;;8.40;3.40;;;19.30;80.30;;;;;;5041716;28;20521;-73
2023/05/04 07:16:27;;;;;;;6.33;3.70;;;19.70;78.00;;;;;;5033753;28;20525;-71
2023/05/04 07:18:54;;;;;;;10.23;4.00;;;20.10;77.30;;;;;;5045403;28;20472;-72
2023/05/04 07:21:23;;;;;;;4.53;2.90;;;20.80;76.80;;;;;;5039563;28;20439;-74
2023/05/04 07:23:51;;;;;;;5.40;4.20;;;21.30;74.50;;;;;;5036716;28;20450;-74
2023/05/04 07:26:18;;;;;;;7.00;4.20;;;21.10;73.50;;;;;;5040199;28;20584;-71
2023/05/04 07:28:45;;;;;;;8.57;4.27;;;21.10;73.50;;;;;;5042759;28;20516;-72
2023/05/04 07:31:13;;;;;;;7.63;3.87;;;21.20;73.40;;;;;;5039707;28;20478;-73
2023/05/04 07:33:40;;;;;;;5.43;2.93;;;21.50;73.10;;;;;;5037297;28;20527;-72
2023/05/04 07:36:08;;;;;;;9.20;3.63;;;21.90;73.30;;;;;;5045976;28;20467;-72
2023/05/04 07:38:37;;;;;;;6.10;3.10;;;22.10;72.30;;;;;;5036545;28;20451;-72
2023/05/04 07:41:04;;;;;;;4.80;3.10;;;21.90;72.00;;;;;;5034240;28;20457;-71
2023/05/04 07:43:31;;;;;;;6.10;2.60;;;21.90;71.00;;;;;;5034311;28;20459;-73
2023/05/04 07:45:58;;;;;;;7.90;4.43;;;21.10;71.30;;;;;;5040699;28;20991;-71
2023/05/04 07:48:24;;;;;;;7.70;2.60;;;20.10;73.90;;;;;;5040351;28;20548;-74
2023/05/04 07:50:52;;;;;;;12.73;3.53;;;20.00;74.30;;;;;;5041207;28;20451;-71
2023/05/04 07:53:19;;;;;;;5.43;2.90;;;19.60;74.80;;;;;;5033326;28;20438;-75
2023/05/04 07:55:48;;;;;;;8.00;3.07;;;19.30;75.50;;;;;;5041183;28;20447;-74
2023/05/04 07:58:15;;;;;;;6.67;3.23;;;19.20;76.30;;;;;;5040149;28;20484;-72
2023/05/04 08:00:42;;;;;;;8.07;3.70;;;19.40;76.40;;;;;;5035416;28;20561;-75
2023/05/04 08:03:09;;;;;;;6.97;2.83;;;19.80;75.90;;;;;;5037893;28;20520;-73
2023/05/04 08:05:36;;;;;;;9.03;3.60;;;20.20;75.90;;;;;;5036421;28;20496;-73
2023/05/04 08:08:03;;;;;;;5.83;2.87;;;20.80;74.70;;;;;;5040318;28;20450;-73
2023/05/04 08:10:30;;;;;;;3.80;2.57;;;21.10;73.00;;;;;;5037423;28;20474;-73
2023/05/04 08:12:58;;;;;;;7.10;2.60;;;21.40;72.20;;;;;;5039969;28;20480;-72
2023/05/04 08:15:25;;;;;;;8.67;2.87;;;21.70;71.20;;;;;;5035740;28;20454;-73
2023/05/04 08:17:53;;;;;;;7.07;3.10;;;22.20;71.10;;;;;;5037848;28;20526;-74
2023/05/04 08:20:20;;;;;;;3.50;2.57;;;22.70;69.90;;;;;;5034225;28;20482;-74
2023/05/04 08:22:47;;;;;;;4.90;2.90;;;23.40;68.80;;;;;;5033653;28;20538;-72
2023/05/04 08:25:14;;;;;;;6.67;3.73;;;24.10;67.70;;;;;;5038284;28;20646;-72
2023/05/04 08:27:41;;;;;;;7.87;3.37;;;24.60;65.60;;;;;;5032915;28;20546;-71
2023/05/04 08:30:10;;;;;;;4.70;3.30;;;24.90;63.90;;;;;;5038410;28;20477;-74
2023/05/04 08:32:37;;;;;;;5.77;3.00;;;25.10;63.40;;;;;;5034146;28;20447;-72
2023/05/04 08:35:04;;;;;;;9.17;3.60;;;25.40;62.60;;;;;;5033958;28;20535;-74
2023/05/04 08:37:31;;;;;;;3.87;2.37;;;25.10;62.40;;;;;;5033694;28;20469;-73
2023/05/04 08:39:58;;;;;;;5.27;3.70;;;24.90;62.00;;;;;;5032098;28;20554;-74
2023/05/04 08:42:29;;;;;;;5.50;3.40;;;24.60;62.00;;;;;;5033506;28;20518;-74
2023/05/04 08:44:57;;;;;;;8.20;3.20;;;23.70;62.70;;;;;;5032948;28;20493;-74
2023/05/04 08:47:26;;;;;;;7.83;2.97;;;23.30;64.00;;;;;;5033682;28;20478;-74
2023/05/04 08:49:54;;;;;;;3.70;2.70;;;23.70;64.00;;;;;;5032624;28;22211;-73
2023/05/04 08:52:23;;;;;;;6.43;2.83;;;23.90;63.70;;;;;;5032589;28;20443;-72
2023/05/04 08:54:53;;;;;;;13.60;3.67;;;24.10;64.40;;;;;;5033112;28;20531;-75
2023/05/04 08:57:22;;;;;;;9.30;3.47;;;24.30;63.30;;;;;;5032971;28;20554;-73
2023/05/04 08:59:52;;;;;;;3.97;2.47;;;23.90;63.20;;;;;;5033132;28;20498;-72
2023/05/04 09:02:21;;;;;;;4.77;2.97;;;24.50;62.60;;;;;;5037549;28;20610;-74
2023/05/04 09:04:51;;;;;;;3.93;2.90;;;24.50;61.30;;;;;;5028271;28;20454;-74
2023/05/04 09:07:20;;;;;;;5.83;3.60;;;23.90;60.10;;;;;;5036456;28;20502;-74
2023/05/04 09:09:49;;;;;;;8.30;3.50;;;24.60;60.60;;;;;;5032338;28;20574;-73
2023/05/04 09:12:17;;;;;;;9.10;4.03;;;24.80;60.20;;;;;;5038936;28;20509;-72
2023/05/04 09:14:45;;;;;;;6.13;3.13;;;25.10;59.30;;;;;;5035441;28;20451;-76
2023/05/04 09:17:24;;;;;;;6.33;3.20;;;25.20;59.30;;;;;;5038563;28;20438;-72
2023/05/04 09:19:59;;;;;;;4.70;3.10;;;25.20;59.40;;;;;;5043883;28;20545;-74
2023/05/04 09:22:26;;;;;;;8.80;3.87;;;25.30;58.70;;;;;;5040799;28;20464;-71
2023/05/04 09:24:53;;;;;;;6.37;3.83;;;25.10;59.10;;;;;;5046252;28;20450;-72
2023/05/04 09:27:21;;;;;;;5.83;2.73;;;25.40;58.30;;;;;;5057701;28;20964;-75
2023/05/04 09:29:55;;;;;;;4.43;3.23;;;25.20;58.40;;;;;;5041314;28;20977;-74
2023/05/04 09:32:22;;;;;;;8.23;3.23;;;25.20;58.20;;;;;;5043575;28;20443;-74
2023/05/04 09:34:51;;;;;;;7.43;3.73;;;25.40;59.20;;;;;;5035529;28;20452;-74
2023/05/04 09:37:21;;;;;;;6.83;3.47;;;25.10;60.10;;;;;;5043695;28;20443;-74
2023/05/04 09:39:54;;;;;;;5.10;3.20;;;24.80;58.30;;;;;;5040422;28;20470;-74
2023/05/04 09:42:22;;;;;;;8.73;3.60;;;24.20;58.20;;;;;;5032883;28;20451;-76
2023/05/04 09:45:05;;;;;;;5.07;3.30;;;23.70;59.40;;;;;;5032620;28;20458;-75
2023/05/04 09:47:37;;;;;;;6.10;3.00;;;23.70;59.40;;;;;;5031940;28;20478;-75
2023/05/04 09:50:18;;;;;;;8.53;3.47;;;23.10;59.60;;;;;;5034254;28;20471;-75
2023/05/04 09:52:47;;;;;;;3.90;3.10;;;22.60;61.00;;;;;;5031115;28;20463;-71
2023/05/04 09:55:19;;;;;;;6.10;2.60;;;22.60;63.20;;;;;;5032245;28;20918;-73
2023/05/04 09:57:49;;;;;;;6.30;3.50;;;22.80;63.30;;;;;;5031191;28;20522;-75
2023/05/04 10:00:17;;;;;;;6.33;3.43;;;22.60;63.80;;;;;;5037711;28;20474;-73
2023/05/04 10:02:45;;;;;;;12.97;4.03;;;22.70;64.00;;;;;;5035068;28;20457;-73
2023/05/04 10:05:16;;;;;;;6.73;4.10;;;22.90;63.60;;;;;;5031947;28;20462;-72
2023/05/04 10:07:44;;;;;;;4.13;3.10;;;22.80;64.10;;;;;;5042265;28;20644;-72
2023/05/04 10:10:15;;;;;;;6.40;4.00;;;23.00;63.80;;;;;;5030490;28;20478;-73
2023/05/04 10:12:44;;;;;;;5.10;4.10;;;22.80;63.40;;;;;;5032098;28;20447;-74
2023/05/04 10:15:12;;;;;;;4.33;3.60;;;22.70;64.30;;;;;;5032048;28;20546;-73
2023/05/04 10:17:53;;;;;;;3.77;3.33;;;22.70;64.10;;;;;;5035301;28;20926;-74
2023/05/04 10:20:50;;;;;;;6.20;4.00;;;22.60;63.90;;;;;;5032481;28;20550;-74
2023/05/04 10:23:46;;;;;;;13.80;6.00;;;22.50;64.80;;;;;;5035589;28;20455;-73
2023/05/04 10:26:39;;;;;;;7.60;3.50;;;22.60;64.10;;;;;;5030813;28;20470;-73
2023/05/04 10:29:12;;;;;;;10.60;3.53;;;22.60;63.70;;;;;;5029764;28;20489;-73
2023/05/04 10:31:40;;;;;;;11.57;4.90;;;23.00;63.30;;;;;;5042981;28;20446;-73
2023/05/04 10:34:08;;;;;;;13.60;3.57;;;22.60;64.00;;;;;;5035658;28;20509;-72
2023/05/04 10:36:39;;;;;;;7.13;3.10;;;22.30;63.70;;;;;;5035932;28;20925;-74
2023/05/04 10:39:18;;;;;;;6.70;3.33;;;21.90;64.20;;;;;;5035177;28;20462;-73
2023/05/04 10:42:02;;;;;;;5.07;3.50;;;21.40;65.60;;;;;;5032312;28;20454;-74
2023/05/04 10:44:30;;;;;;;4.90;3.37;;;21.10;64.30;;;;;;5035447;28;20481;-74
2023/05/04 10:47:02;;;;;;;7.30;3.50;;;20.90;65.50;;;;;;5035088;28;20485;-74
2023/05/04 10:49:29;;;;;;;7.60;3.20;;;21.00;65.50;;;;;;5033643;28;20467;-72
2023/05/04 10:52:07;;;;;;;8.07;3.83;;;20.70;66.30;;;;;;5035846;28;20445;-74
2023/05/04 10:54:34;;;;;;;7.70;3.30;;;20.60;67.00;;;;;;5034653;28;20448;-72
2023/05/04 10:57:07;;;;;;;8.80;3.20;;;20.40;66.10;;;;;;5035302;28;20444;-72
2023/05/04 10:59:34;;;;;;;6.60;3.43;;;20.30;66.90;;;;;;5033377;28;20978;-73
2023/05/04 11:02:02;;;;;;;4.40;3.20;;;20.30;66.90;;;;;;5034737;28;20460;-72
2023/05/04 11:04:29;;;;;;;4.87;3.33;;;20.60;67.00;;;;;;5037176;28;20548;-72
2023/05/04 11:06:58;;;;;;;9.27;3.20;;;20.60;67.00;;;;;;5043355;28;21023;-71
2023/05/04 11:09:26;;;;;;;9.87;4.00;;;20.30;67.70;;;;;;5035097;28;20471;-74
2023/05/04 11:11:54;;;;;;;5.63;3.30;;;20.20;67.00;;;;;;5036111;28;20472;-72
2023/05/04 11:14:27;;;;;;;4.80;2.60;;;19.90;67.40;;;;;;5037266;28;20514;-74
2023/05/04 11:17:05;;;;;;;7.30;3.43;;;20.10;68.30;;;;;;5034113;28;20441;-74
2023/05/04 11:19:32;;;;;;;4.73;2.93;;;20.00;66.30;;;;;;5035818;28;20520;-73
2023/05/04 11:22:00;;;;;;;5.40;3.27;;;20.10;66.00;;;;;;5033641;28;20789;-72
2023/05/04 11:24:36;;;;;;;4.13;3.20;;;20.10;65.60;;;;;;5034617;28;20888;-72
2023/05/04 11:27:03;;;;;;;6.00;3.13;;;20.10;66.50;;;;;;5038110;28;20492;-71
2023/05/04 11:29:32;;;;;;;8.80;3.97;;;20.00;67.40;;;;;;5033599;28;20475;-74
2023/05/04 11:31:58;;;;;;;5.90;3.20;;;20.00;66.90;;;;;;5027642;28;20455;-73
2023/05/04 11:34:26;;;;;;;6.53;2.77;;;20.20;67.30;;;;;;5034681;28;20453;-73
2023/05/04 11:36:53;;;;;;;6.60;3.43;;;20.20;66.50;;;;;;5034969;28;20449;-74
2023/05/04 11:39:20;;;;;;;3.83;3.00;;;20.30;64.80;;;;;;5034321;28;20469;-73
2023/05/04 11:41:47;;;;;;;8.73;2.70;;;20.20;65.30;;;;;;5032634;28;20442;-74
2023/05/04 11:44:16;;;;;;;6.10;3.20;;;20.20;66.40;;;;;;5034324;28;20799;-73
2023/05/04 11:46:46;;;;;;;8.93;3.20;;;20.30;66.90;;;;;;5036183;28;20515;-73
2023/05/04 11:49:14;;;;;;;12.10;3.30;;;20.20;64.70;;;;;;5042874;28;20560;-72
2023/05/04 11:51:41;;;;;;;5.60;3.10;;;20.10;64.20;;;;;;5039472;28;20452;-71
2023/05/04 11:54:08;;;;;;;5.60;3.57;;;19.90;65.80;;;;;;5034319;28;20816;-74
2023/05/04 11:56:42;;;;;;;10.50;3.77;;;19.90;66.60;;;;;;5040894;28;20451;-74
2023/05/04 11:59:09;;;;;;;9.20;3.47;;;20.20;66.90;;;;;;5034507;28;20817;-74
2023/05/04 12:01:37;;;;;;;5.53;3.20;;;20.30;64.20;;;;;;5035874;28;20444;-75
2023/05/04 12:04:06;;;;;;;3.90;3.47;;;20.20;64.20;;;;;;5033492;28;20443;-72
2023/05/04 12:06:34;;;;;;;5.03;3.43;;;20.30;65.10;;;;;;5033531;28;20533;-73
2023/05/04 12:09:05;;;;;;;4.27;2.80;;;20.30;66.20;;;;;;5033603;28;20474;-76
2023/05/04 12:11:32;;;;;;;6.73;3.37;;;20.40;65.20;;;;;;5034552;28;20468;-73
2023/05/04 12:14:04;;;;;;;3.90;2.70;;;20.30;62.30;;;;;;5033457;28;20476;-73
2023/05/04 12:16:31;;;;;;;7.70;2.70;;;20.40;62.00;;;;;;5041175;28;20448;-73
2023/05/04 12:19:03;;;;;;;3.93;2.57;;;20.30;62.60;;;;;;5037114;28;20469;-72
2023/05/04 12:21:33;;;;;;;4.57;2.90;;;20.00;61.40;;;;;;5029788;28;20806;-72
2023/05/04 12:24:00;;;;;;;5.27;3.50;;;19.80;63.00;;;;;;5033503;28;20993;-72
2023/05/04 12:26:28;;;;;;;5.67;2.87;;;20.00;65.40;;;;;;5041984;28;20525;-73
2023/05/04 12:28:55;;;;;;;10.03;3.00;;;19.90;64.70;;;;;;5040688;28;21006;-75
2023/05/04 12:31:22;;;;;;;5.10;3.03;;;19.80;64.70;;;;;;5028513;28;20932;-71
2023/05/04 12:33:50;;;;;;;6.93;3.50;;;19.80;64.30;;;;;;5042650;28;20528;-74
2023/05/04 12:36:18;;;;;;;7.10;4.47;;;19.70;65.60;;;;;;5038264;28;20455;-73
2023/05/04 12:38:46;;;;;;;7.47;2.80;;;19.70;66.90;;;;;;5041679;28;20471;-74
2023/05/04 12:41:14;;;;;;;11.03;3.73;;;19.80;66.90;;;;;;5032630;28;20916;-74
2023/05/04 12:43:41;;;;;;;5.10;3.20;;;19.90;66.90;;;;;;5040450;28;20471;-71
2023/05/04 12:46:08;;;;;;;7.73;3.27;;;19.80;66.00;;;;;;5035911;28;20451;-74
2023/05/04 12:48:35;;;;;;;9.60;3.20;;;19.70;66.00;;;;;;5032258;28;20574;-75
2023/05/04 12:51:04;;;;;;;3.50;2.50;;;19.80;64.60;;;;;;5033336;28;20509;-72